Time;durP1;ratioP1;P1;durP2;ratioP2;P2;SDS_P1;SDS_P2;PMS_P1;PMS_P2;Temp;Humidity;BMP_temperature;BMP_pressure;BME280_temperature;BME280_humidity;BME280_pressure;Samples;Min_cycle;Max_cycle;Signal;HPM_P1;HPM_P2
2023/06/21 00:00:48;;;;;;;15.93;13.98;;;;;;;;;;5093819;28;20031;-72
2023/06/21 00:03:14;;;;;;;16.60;13.77;;;;;;;;;;5075358;28;20028;-72
2023/06/21 00:05:39;;;;;;;15.48;13.65;;;;;;;;;;5075641;28;20309;-72
2023/06/21 00:08:06;;;;;;;17.58;14.38;;;;;;;;;;5074971;28;20042;-72
2023/06/21 00:10:31;;;;;;;18.33;14.40;;;;;;;;;;5058065;28;20028;-73
2023/06/21 00:12:58;;;;;;;17.55;14.55;;;;;;;;;;5057753;28;20024;-72
2023/06/21 00:15:24;;;;;;;16.90;14.32;;;;;;;;;;5074614;28;20038;-72
2023/06/21 00:17:50;;;;;;;17.60;13.98;;;;;;;;;;5074689;28;20488;-73
2023/06/21 00:20:16;;;;;;;17.33;13.77;;;;;;;;;;5057852;28;20049;-74
2023/06/21 00:22:45;;;;;;;20.65;14.68;;;;;;;;;;5092039;28;20048;-72
2023/06/21 00:25:20;;;;;;;18.08;14.25;;;;;;;;;;5075365;28;20049;-71
2023/06/21 00:27:47;;;;;;;16.17;13.88;;;;;;;;;;5094908;28;20024;-73
2023/06/21 00:30:14;;;;;;;21.55;13.85;;;;;;;;;;5096580;28;20059;-74
2023/06/21 00:32:39;;;;;;;18.10;14.27;;;;;;;;;;5096566;28;20024;-73
2023/06/21 00:35:06;;;;;;;16.50;14.57;;;;;;;;;;5096460;28;20016;-73
2023/06/21 00:37:32;;;;;;;19.40;15.65;;;;;;;;;;5096761;28;20258;-73
2023/06/21 00:39:57;;;;;;;19.85;14.77;;;;;;;;;;5095721;28;20051;-72
2023/06/21 00:42:24;;;;;;;22.73;15.30;;;;;;;;;;5096323;28;20461;-72
2023/06/21 00:44:50;;;;;;;18.83;15.05;;;;;;;;;;5096661;28;20116;-74
2023/06/21 00:47:18;;;;;;;17.75;15.57;;;;;;;;;;5096181;28;20476;-73
2023/06/21 00:49:43;;;;;;;18.52;15.23;;;;;;;;;;5096485;28;20035;-73
2023/06/21 00:52:09;;;;;;;18.50;14.52;;;;;;;;;;5096469;28;20109;-73
2023/06/21 00:54:35;;;;;;;16.52;14.27;;;;;;;;;;5095883;28;20107;-73
2023/06/21 00:57:01;;;;;;;17.67;14.68;;;;;;;;;;5077971;28;20472;-73
2023/06/21 00:59:28;;;;;;;21.25;15.02;;;;;;;;;;5096026;28;20035;-73
2023/06/21 01:02:00;;;;;;;17.77;15.27;;;;;;;;;;5095082;28;20065;-73
2023/06/21 01:04:49;;;;;;;16.42;13.88;;;;;;;;;;5094892;28;20020;-72
2023/06/21 01:07:36;;;;;;;16.75;13.68;;;;;;;;;;5095102;28;20028;-72
2023/06/21 01:10:21;;;;;;;20.63;15.68;;;;;;;;;;5094230;28;20024;-72
2023/06/21 01:12:57;;;;;;;18.92;15.00;;;;;;;;;;5075359;28;20032;-72
2023/06/21 01:15:24;;;;;;;20.15;14.77;;;;;;;;;;5094588;28;20117;-72
2023/06/21 01:17:59;;;;;;;20.33;15.70;;;;;;;;;;5076761;28;20081;-73
2023/06/21 01:20:29;;;;;;;28.33;15.80;;;;;;;;;;5077292;28;20066;-72
2023/06/21 01:23:09;;;;;;;21.25;16.05;;;;;;;;;;5095770;28;20020;-72
2023/06/21 01:25:51;;;;;;;22.67;16.73;;;;;;;;;;5095854;28;20027;-73
2023/06/21 01:28:20;;;;;;;18.17;15.65;;;;;;;;;;5095004;28;20782;-72
2023/06/21 01:30:55;;;;;;;21.27;15.80;;;;;;;;;;5095461;28;20423;-73
2023/06/21 01:33:20;;;;;;;19.70;15.77;;;;;;;;;;5095668;28;20035;-72
2023/06/21 01:35:54;;;;;;;18.73;15.80;;;;;;;;;;5095155;28;20388;-72
2023/06/21 01:38:23;;;;;;;19.95;16.65;;;;;;;;;;5095491;28;20091;-73
2023/06/21 01:40:50;;;;;;;18.02;14.70;;;;;;;;;;5077694;28;20034;-71
2023/06/21 01:43:17;;;;;;;21.13;15.70;;;;;;;;;;5060606;28;20020;-73
2023/06/21 01:45:43;;;;;;;22.30;15.85;;;;;;;;;;5095428;28;20550;-73
2023/06/21 01:48:09;;;;;;;20.15;15.63;;;;;;;;;;5077429;28;20028;-73
2023/06/21 01:50:36;;;;;;;20.05;16.80;;;;;;;;;;5077011;28;20032;-72
2023/06/21 01:53:13;;;;;;;20.23;16.15;;;;;;;;;;5095374;28;20090;-73
2023/06/21 01:55:41;;;;;;;19.40;16.52;;;;;;;;;;5095401;28;20024;-72
2023/06/21 01:58:07;;;;;;;19.85;15.25;;;;;;;;;;5094975;28;20045;-73
2023/06/21 02:00:33;;;;;;;19.97;15.93;;;;;;;;;;5076373;28;20123;-73
2023/06/21 02:03:00;;;;;;;19.80;16.48;;;;;;;;;;5094809;28;20277;-73
2023/06/21 02:05:27;;;;;;;19.00;16.45;;;;;;;;;;5076649;28;20035;-72
2023/06/21 02:07:54;;;;;;;21.60;17.33;;;;;;;;;;5076847;28;20098;-72
2023/06/21 02:10:29;;;;;;;20.67;16.75;;;;;;;;;;5076516;28;20455;-73
2023/06/21 02:12:54;;;;;;;20.27;15.25;;;;;;;;;;5094729;28;20030;-72
2023/06/21 02:15:19;;;;;;;19.52;16.15;;;;;;;;;;5076300;28;20032;-73
2023/06/21 02:17:51;;;;;;;21.73;16.58;;;;;;;;;;5094707;28;20418;-72
2023/06/21 02:20:16;;;;;;;;;;;;;;;;;;5076763;28;20024;-73
2023/06/21 02:22:43;;;;;;;20.90;16.77;;;;;;;;;;5094784;28;19904;-72
2023/06/21 02:25:10;;;;;;;21.58;16.13;;;;;;;;;;5094981;28;20153;-73
2023/06/21 02:27:36;;;;;;;19.55;17.13;;;;;;;;;;5076126;28;20031;-73
2023/06/21 02:30:02;;;;;;;21.00;17.10;;;;;;;;;;5078523;28;20099;-73
2023/06/21 02:32:28;;;;;;;22.48;17.10;;;;;;;;;;5074248;28;20051;-71
2023/06/21 02:34:54;;;;;;;21.55;16.88;;;;;;;;;;5072967;28;20412;-71
2023/06/21 02:37:19;;;;;;;23.13;16.03;;;;;;;;;;5073829;28;20024;-72
2023/06/21 02:39:44;;;;;;;20.58;16.52;;;;;;;;;;5073277;28;20259;-73
2023/06/21 02:42:09;;;;;;;22.52;17.45;;;;;;;;;;5073731;28;20106;-73
2023/06/21 02:44:36;;;;;;;20.67;16.08;;;;;;;;;;5073564;28;20477;-73
2023/06/21 02:47:01;;;;;;;19.33;16.17;;;;;;;;;;5073804;28;20025;-75
2023/06/21 02:49:32;;;;;;;19.70;15.82;;;;;;;;;;5073453;28;20013;-71
2023/06/21 02:51:57;;;;;;;18.60;15.43;;;;;;;;;;5073511;28;20020;-75
2023/06/21 02:54:24;;;;;;;20.42;16.02;;;;;;;;;;5073840;28;20035;-75
2023/06/21 02:56:49;;;;;;;23.40;16.77;;;;;;;;;;5073410;28;20032;-72
2023/06/21 02:59:23;;;;;;;19.67;15.87;;;;;;;;;;5055245;28;20039;-74
2023/06/21 03:01:50;;;;;;;17.67;15.52;;;;;;;;;;5071667;28;20605;-73
2023/06/21 03:04:16;;;;;;;20.40;15.15;;;;;;;;;;5071902;28;20360;-73
2023/06/21 03:06:42;;;;;;;21.45;16.52;;;;;;;;;;5073289;28;20071;-73
2023/06/21 03:09:13;;;;;;;18.52;15.82;;;;;;;;;;5072281;28;20469;-72
2023/06/21 03:11:38;;;;;;;19.08;15.55;;;;;;;;;;5072152;28;20047;-73
2023/06/21 03:14:05;;;;;;;19.55;15.45;;;;;;;;;;5073456;28;20354;-72
2023/06/21 03:16:32;;;;;;;18.40;16.13;;;;;;;;;;5072977;28;20480;-73
2023/06/21 03:18:58;;;;;;;17.75;15.85;;;;;;;;;;5073493;28;20020;-73
2023/06/21 03:21:33;;;;;;;17.67;14.73;;;;;;;;;;5072211;28;20028;-73
2023/06/21 03:23:58;;;;;;;26.00;15.60;;;;;;;;;;5074400;28;20449;-73
2023/06/21 03:26:24;;;;;;;19.30;14.93;;;;;;;;;;5074066;28;20099;-72
2023/06/21 03:28:49;;;;;;;19.25;15.60;;;;;;;;;;5079214;28;20086;-73
2023/06/21 03:31:19;;;;;;;26.13;16.70;;;;;;;;;;5092084;28;20078;-72
2023/06/21 03:33:46;;;;;;;20.15;15.40;;;;;;;;;;5092001;28;20269;-72
2023/06/21 03:36:11;;;;;;;20.85;15.60;;;;;;;;;;5074380;28;20024;-72
2023/06/21 03:38:43;;;;;;;21.55;16.35;;;;;;;;;;5092403;28;20480;-72
2023/06/21 03:41:08;;;;;;;20.60;15.93;;;;;;;;;;5092009;28;20415;-72
2023/06/21 03:43:39;;;;;;;17.13;15.10;;;;;;;;;;5091845;28;20032;-73
2023/06/21 03:46:04;;;;;;;20.95;15.77;;;;;;;;;;5091944;28;20516;-73
2023/06/21 03:48:30;;;;;;;24.92;15.23;;;;;;;;;;5073727;28;20132;-71
2023/06/21 03:50:56;;;;;;;19.17;14.93;;;;;;;;;;5091822;28;20099;-72
2023/06/21 03:53:33;;;;;;;20.27;16.02;;;;;;;;;;5092162;28;20281;-74
2023/06/21 03:56:07;;;;;;;18.40;14.77;;;;;;;;;;5091724;28;20543;-73
2023/06/21 03:58:32;;;;;;;19.33;14.85;;;;;;;;;;5091902;28;20024;-72
2023/06/21 04:00:59;;;;;;;17.65;15.15;;;;;;;;;;5091692;28;20046;-72
2023/06/21 04:03:39;;;;;;;19.73;15.18;;;;;;;;;;5095309;28;20024;-74
2023/06/21 04:06:05;;;;;;;19.17;15.50;;;;;;;;;;5095753;28;20039;-72
2023/06/21 04:08:39;;;;;;;16.45;14.15;;;;;;;;;;5095806;28;20024;-72
2023/06/21 04:11:10;;;;;;;17.55;15.10;;;;;;;;;;5095718;28;20028;-72
2023/06/21 04:13:35;;;;;;;18.08;15.23;;;;;;;;;;5060844;28;20036;-74
2023/06/21 04:16:07;;;;;;;18.50;15.00;;;;;;;;;;5095513;28;20138;-74
2023/06/21 04:18:32;;;;;;;24.17;15.23;;;;;;;;;;5095855;28;20016;-74
2023/06/21 04:20:58;;;;;;;21.37;15.47;;;;;;;;;;5095814;28;20023;-72
2023/06/21 04:23:26;;;;;;;20.00;16.73;;;;;;;;;;5078607;28;20336;-73
2023/06/21 04:25:56;;;;;;;23.00;15.50;;;;;;;;;;5096628;28;20037;-72
2023/06/21 04:28:25;;;;;;;23.85;16.05;;;;;;;;;;5096329;28;20030;-73
2023/06/21 04:30:51;;;;;;;22.17;15.40;;;;;;;;;;5096865;28;20031;-73
2023/06/21 04:33:16;;;;;;;20.15;16.17;;;;;;;;;;5078957;28;20161;-76
2023/06/21 04:35:42;;;;;;;21.30;15.20;;;;;;;;;;5078448;28;20464;-74
2023/06/21 04:38:07;;;;;;;20.90;14.85;;;;;;;;;;5098120;28;20262;-75
2023/06/21 04:40:34;;;;;;;22.38;16.27;;;;;;;;;;5098803;28;20074;-74
2023/06/21 04:43:06;;;;;;;20.75;15.38;;;;;;;;;;5098461;28;20048;-74
2023/06/21 04:45:34;;;;;;;25.65;14.90;;;;;;;;;;5098715;28;20372;-75
2023/06/21 04:48:07;;;;;;;24.67;15.07;;;;;;;;;;5082035;28;20174;-74
2023/06/21 04:50:34;;;;;;;33.00;15.70;;;;;;;;;;5096692;28;20016;-80
2023/06/21 04:52:59;;;;;;;19.35;13.70;;;;;;;;;;5095529;28;20477;-77
2023/06/21 04:55:27;;;;;;;27.35;14.13;;;;;;;;;;5096532;28;20043;-75
2023/06/21 04:57:54;;;;;;;17.63;14.68;;;;;;;;;;5061047;28;20034;-74
2023/06/21 05:00:19;;;;;;;24.23;14.68;;;;;;;;;;5078196;28;20373;-76
2023/06/21 05:02:49;;;;;;;24.15;14.55;;;;;;;;;;5096230;28;20130;-74
2023/06/21 05:05:16;;;;;;;25.08;14.50;;;;;;;;;;5078208;28;20055;-75
2023/06/21 05:07:42;;;;;;;19.33;14.15;;;;;;;;;;5071318;28;20142;-77
2023/06/21 05:10:10;;;;;;;16.60;13.45;;;;;;;;;;5078874;28;20099;-81
2023/06/21 05:12:40;;;;;;;17.40;13.60;;;;;;;;;;5057554;28;20032;-76
2023/06/21 05:15:21;;;;;;;20.33;14.77;;;;;;;;;;5057825;28;20525;-80
2023/06/21 05:17:48;;;;;;;19.48;14.68;;;;;;;;;;5076964;28;20052;-76
2023/06/21 05:20:14;;;;;;;19.67;14.70;;;;;;;;;;5082205;28;20035;-76
2023/06/21 05:22:44;;;;;;;17.08;13.93;;;;;;;;;;5077698;28;20392;-76
2023/06/21 05:25:17;;;;;;;23.65;14.38;;;;;;;;;;5078124;28;20032;-77
2023/06/21 05:27:43;;;;;;;21.98;14.18;;;;;;;;;;5096033;28;20027;-76
2023/06/21 05:30:10;;;;;;;28.20;15.25;;;;;;;;;;5095515;28;20063;-74
2023/06/21 05:32:36;;;;;;;38.55;16.08;;;;;;;;;;5095649;28;20111;-75
2023/06/21 05:35:07;;;;;;;21.50;14.80;;;;;;;;;;5095939;28;20059;-76
2023/06/21 05:37:32;;;;;;;20.50;14.77;;;;;;;;;;5095739;28;20103;-77
2023/06/21 05:40:19;;;;;;;18.15;13.80;;;;;;;;;;5095683;28;20508;-77
2023/06/21 05:42:45;;;;;;;22.02;13.50;;;;;;;;;;5092612;28;20032;-77
2023/06/21 05:45:25;;;;;;;18.92;13.60;;;;;;;;;;5094144;28;20024;-77
2023/06/21 05:47:58;;;;;;;17.10;12.40;;;;;;;;;;5094221;28;20062;-77
2023/06/21 05:50:30;;;;;;;23.63;13.35;;;;;;;;;;5076072;28;20051;-78
2023/06/21 05:52:56;;;;;;;20.02;15.15;;;;;;;;;;5094191;28;20031;-76
2023/06/21 05:55:27;;;;;;;18.35;13.85;;;;;;;;;;5094506;28;20031;-77
2023/06/21 05:57:56;;;;;;;25.50;13.95;;;;;;;;;;5076079;28;20066;-77
2023/06/21 06:00:30;;;;;;;18.98;13.70;;;;;;;;;;5094226;28;20028;-78
2023/06/21 06:02:55;;;;;;;28.23;13.73;;;;;;;;;;5093905;28;20464;-76
2023/06/21 06:05:20;;;;;;;32.00;14.83;;;;;;;;;;5094198;28;20058;-77
2023/06/21 06:07:46;;;;;;;24.73;13.53;;;;;;;;;;5094281;28;20265;-77
2023/06/21 06:10:12;;;;;;;23.37;13.10;;;;;;;;;;5094005;28;20277;-79
2023/06/21 06:12:38;;;;;;;20.83;13.55;;;;;;;;;;5094725;28;20622;-77
2023/06/21 06:15:04;;;;;;;18.33;13.40;;;;;;;;;;5095295;28;20030;-78
2023/06/21 06:17:30;;;;;;;23.08;14.93;;;;;;;;;;5095065;28;20461;-79
2023/06/21 06:19:56;;;;;;;20.15;14.27;;;;;;;;;;5095875;28;20020;-78
2023/06/21 06:22:22;;;;;;;25.38;14.68;;;;;;;;;;5101803;28;20119;-77
2023/06/21 06:24:50;;;;;;;31.83;14.73;;;;;;;;;;5094753;28;20019;-78
2023/06/21 06:27:16;;;;;;;27.45;15.10;;;;;;;;;;5074567;28;20021;-74
2023/06/21 06:29:41;;;;;;;18.40;14.20;;;;;;;;;;5074530;28;20048;-77
2023/06/21 06:32:10;;;;;;;23.83;14.47;;;;;;;;;;5073953;28;20056;-75
2023/06/21 06:34:36;;;;;;;22.38;15.77;;;;;;;;;;5074443;28;20298;-75
2023/06/21 06:37:01;;;;;;;24.83;15.33;;;;;;;;;;5074156;28;20059;-77
2023/06/21 06:39:28;;;;;;;24.63;16.00;;;;;;;;;;5073609;28;20597;-75
2023/06/21 06:41:53;;;;;;;23.77;16.55;;;;;;;;;;5073760;28;20271;-74
2023/06/21 06:44:18;;;;;;;31.83;17.00;;;;;;;;;;5074350;28;20499;-75
2023/06/21 06:46:43;;;;;;;23.73;16.90;;;;;;;;;;5073695;28;20274;-73
2023/06/21 06:49:08;;;;;;;27.80;18.53;;;;;;;;;;5072995;28;20275;-73
2023/06/21 06:51:34;;;;;;;29.37;19.20;;;;;;;;;;5062480;28;20036;-74
2023/06/21 06:53:59;;;;;;;25.30;17.13;;;;;;;;;;5073582;28;20353;-73
2023/06/21 06:56:25;;;;;;;31.17;19.27;;;;;;;;;;5073352;28;20631;-74
2023/06/21 06:58:50;;;;;;;31.80;18.00;;;;;;;;;;5055499;28;20350;-74
2023/06/21 07:01:16;;;;;;;28.17;19.23;;;;;;;;;;5072517;28;20146;-73
2023/06/21 07:03:41;;;;;;;24.48;17.92;;;;;;;;;;5073647;28;20329;-75
2023/06/21 07:06:07;;;;;;;24.23;17.53;;;;;;;;;;5073668;28;20063;-74
2023/06/21 07:08:32;;;;;;;25.23;16.83;;;;;;;;;;5072885;28;20341;-74
2023/06/21 07:10:58;;;;;;;21.47;16.57;;;;;;;;;;5072486;28;20271;-78
2023/06/21 07:13:23;;;;;;;25.20;18.27;;;;;;;;;;5055404;28;20297;-77
2023/06/21 07:15:49;;;;;;;21.52;18.42;;;;;;;;;;5073388;28;20370;-76
2023/06/21 07:18:14;;;;;;;28.55;18.65;;;;;;;;;;5055666;28;20024;-78
2023/06/21 07:20:41;;;;;;;26.38;18.80;;;;;;;;;;5073469;28;20020;-76
2023/06/21 07:23:06;;;;;;;27.35;18.55;;;;;;;;;;5075664;28;20178;-76
2023/06/21 07:25:31;;;;;;;26.10;18.25;;;;;;;;;;5075936;28;20476;-77
2023/06/21 07:27:58;;;;;;;33.27;18.43;;;;;;;;;;5057875;28;20020;-77
2023/06/21 07:30:25;;;;;;;38.40;18.92;;;;;;;;;;5074714;28;20295;-76
2023/06/21 07:32:51;;;;;;;45.42;19.67;;;;;;;;;;5073799;28;20021;-74
2023/06/21 07:35:16;;;;;;;47.45;19.90;;;;;;;;;;5073140;28;20027;-76
2023/06/21 07:37:42;;;;;;;33.72;20.15;;;;;;;;;;5072908;28;20016;-76
2023/06/21 07:40:08;;;;;;;30.20;21.00;;;;;;;;;;5073068;28;20512;-74
2023/06/21 07:42:33;;;;;;;38.03;21.65;;;;;;;;;;5073771;28;20016;-75
2023/06/21 07:44:59;;;;;;;36.65;23.75;;;;;;;;;;5073215;28;20521;-75
2023/06/21 07:47:25;;;;;;;35.85;23.45;;;;;;;;;;5073003;28;20012;-76
2023/06/21 07:49:51;;;;;;;34.10;24.67;;;;;;;;;;5073273;28;20052;-76
2023/06/21 07:52:17;;;;;;;34.67;25.65;;;;;;;;;;5055157;28;20020;-76
2023/06/21 07:54:47;;;;;;;38.80;26.48;;;;;;;;;;5054823;28;20022;-75
2023/06/21 07:57:13;;;;;;;33.17;25.25;;;;;;;;;;5073016;28;20033;-76
2023/06/21 07:59:38;;;;;;;34.53;24.75;;;;;;;;;;5072799;28;20021;-77
2023/06/21 08:02:13;;;;;;;36.40;25.00;;;;;;;;;;5073092;28;20067;-76
2023/06/21 08:04:38;;;;;;;32.22;25.17;;;;;;;;;;5072956;28;20048;-77
2023/06/21 08:07:04;;;;;;;33.28;21.95;;;;;;;;;;5072848;28;20067;-76
2023/06/21 08:09:29;;;;;;;31.23;20.95;;;;;;;;;;5054482;28;20020;-76
2023/06/21 08:11:54;;;;;;;28.20;19.77;;;;;;;;;;5072940;28;20020;-76
2023/06/21 08:14:20;;;;;;;23.83;20.30;;;;;;;;;;5071945;28;20306;-79
2023/06/21 08:16:45;;;;;;;28.67;20.67;;;;;;;;;;5072043;28;20294;-79
2023/06/21 08:19:10;;;;;;;22.57;19.37;;;;;;;;;;5072755;28;20267;-81
2023/06/21 08:21:36;;;;;;;26.83;19.02;;;;;;;;;;5073031;28;20512;-80
2023/06/21 08:24:02;;;;;;;23.50;18.40;;;;;;;;;;5072755;28;20047;-80
2023/06/21 08:26:28;;;;;;;25.70;16.92;;;;;;;;;;5073126;28;20472;-77
2023/06/21 08:28:53;;;;;;;19.83;14.40;;;;;;;;;;5072627;28;20103;-75
2023/06/21 08:31:20;;;;;;;18.43;13.40;;;;;;;;;;5072573;28;20024;-76
2023/06/21 08:33:45;;;;;;;19.08;13.82;;;;;;;;;;5072675;28;20020;-75
2023/06/21 08:36:11;;;;;;;14.83;13.40;;;;;;;;;;5072154;28;20043;-80
2023/06/21 08:38:36;;;;;;;16.90;13.05;;;;;;;;;;5054309;28;20016;-78
2023/06/21 08:41:02;;;;;;;14.40;12.47;;;;;;;;;;5072623;28;20406;-76
2023/06/21 08:43:31;;;;;;;16.02;11.50;;;;;;;;;;5072522;28;20670;-75
2023/06/21 08:45:57;;;;;;;13.45;12.05;;;;;;;;;;5072583;28;20020;-77
2023/06/21 08:48:23;;;;;;;13.25;10.70;;;;;;;;;;5074592;28;20031;-76
2023/06/21 08:50:49;;;;;;;12.70;11.40;;;;;;;;;;5076261;28;20373;-78
2023/06/21 08:53:19;;;;;;;11.23;9.98;;;;;;;;;;5058230;28;20029;-76
2023/06/21 08:55:45;;;;;;;16.55;9.77;;;;;;;;;;5076304;28;20020;-77
2023/06/21 08:58:16;;;;;;;11.43;8.38;;;;;;;;;;5076455;28;20400;-76
2023/06/21 09:00:46;;;;;;;7.28;6.47;;;;;;;;;;5076170;28;20024;-74
2023/06/21 09:03:32;;;;;;;8.38;7.57;;;;;;;;;;5075855;28;20020;-75
2023/06/21 09:06:24;;;;;;;8.73;7.78;;;;;;;;;;5076114;28;20028;-75
2023/06/21 09:08:50;;;;;;;9.15;6.78;;;;;;;;;;5071792;28;20488;-76
2023/06/21 09:11:21;;;;;;;8.30;7.50;;;;;;;;;;5076299;28;20032;-73
2023/06/21 09:13:47;;;;;;;10.88;8.70;;;;;;;;;;5076096;28;20056;-73
2023/06/21 09:16:13;;;;;;;12.82;7.82;;;;;;;;;;5057597;28;20039;-73
2023/06/21 09:18:39;;;;;;;10.23;8.50;;;;;;;;;;5075971;28;20025;-74
2023/06/21 09:21:05;;;;;;;10.63;8.23;;;;;;;;;;5057824;28;20626;-74
2023/06/21 09:23:30;;;;;;;11.38;8.93;;;;;;;;;;5075587;28;20021;-74
2023/06/21 09:25:56;;;;;;;10.67;8.80;;;;;;;;;;5074623;28;20039;-75
2023/06/21 09:28:22;;;;;;;9.40;7.75;;;;;;;;;;5075887;28;20422;-80
2023/06/21 09:30:47;;;;;;;9.75;7.75;;;;;;;;;;5076148;28;20040;-78
2023/06/21 09:33:12;;;;;;;13.27;8.33;;;;;;;;;;5075608;28;20032;-79
2023/06/21 09:35:39;;;;;;;11.07;8.37;;;;;;;;;;5075559;28;20027;-79
2023/06/21 09:38:39;;;;;;;8.82;7.85;;;;;;;;;;5075691;28;20032;-78
2023/06/21 09:41:05;;;;;;;;;;;;;;;;;;4974586;28;20027;-74
2023/06/21 09:43:31;;;;;;;10.13;8.90;;;;;;;;;;5054948;28;19904;-74
2023/06/21 09:46:03;;;;;;;11.27;8.40;;;;;;;;;;5057696;28;20108;-76
2023/06/21 09:48:33;;;;;;;8.73;7.93;;;;;;;;;;5075351;28;20275;-74
2023/06/21 09:51:03;;;;;;;10.05;8.50;;;;;;;;;;5075168;28;20016;-75
2023/06/21 09:53:29;;;;;;;10.55;8.98;;;;;;;;;;5057010;28;20033;-76
2023/06/21 09:55:56;;;;;;;9.20;8.40;;;;;;;;;;5075226;28;20032;-76
2023/06/21 09:58:22;;;;;;;10.82;8.60;;;;;;;;;;5057064;28;20025;-76
2023/06/21 10:00:47;;;;;;;13.18;9.10;;;;;;;;;;5057036;28;20160;-74
2023/06/21 10:03:14;;;;;;;10.85;8.63;;;;;;;;;;5074844;28;20043;-76
2023/06/21 10:05:54;;;;;;;13.40;9.30;;;;;;;;;;5056821;28;20025;-77
2023/06/21 10:08:23;;;;;;;12.68;9.13;;;;;;;;;;5074983;28;20100;-78
2023/06/21 10:10:49;;;;;;;10.30;9.30;;;;;;;;;;5056953;28;20035;-76
2023/06/21 10:13:14;;;;;;;22.65;10.13;;;;;;;;;;5056433;28;20033;-77
2023/06/21 10:15:46;;;;;;;10.43;8.05;;;;;;;;;;5074296;28;20354;-77
2023/06/21 10:18:12;;;;;;;10.25;8.80;;;;;;;;;;5056248;28;20071;-75
2023/06/21 10:20:39;;;;;;;11.57;9.52;;;;;;;;;;5074710;28;20142;-77
2023/06/21 10:23:07;;;;;;;9.38;8.43;;;;;;;;;;5074598;28;20020;-76
2023/06/21 10:25:36;;;;;;;10.13;9.13;;;;;;;;;;5074648;28;20056;-76
2023/06/21 10:28:12;;;;;;;11.07;9.52;;;;;;;;;;5074327;28;20016;-74
2023/06/21 10:30:40;;;;;;;10.30;8.75;;;;;;;;;;5054591;28;20053;-76
2023/06/21 10:33:06;;;;;;;10.02;9.02;;;;;;;;;;5036443;28;20068;-77
2023/06/21 10:35:45;;;;;;;10.45;8.38;;;;;;;;;;5036662;28;20044;-75
2023/06/21 10:38:11;;;;;;;9.88;8.57;;;;;;;;;;5054653;28;20017;-76
2023/06/21 10:40:39;;;;;;;9.18;8.38;;;;;;;;;;5054361;28;20013;-77
2023/06/21 10:43:07;;;;;;;9.30;8.40;;;;;;;;;;5036821;28;20029;-75
2023/06/21 10:45:33;;;;;;;10.32;9.13;;;;;;;;;;5054332;28;20021;-76
2023/06/21 10:47:59;;;;;;;9.75;8.45;;;;;;;;;;5054159;28;20036;-75
2023/06/21 10:50:24;;;;;;;9.75;8.82;;;;;;;;;;5036007;28;20385;-77
2023/06/21 10:52:55;;;;;;;14.60;9.13;;;;;;;;;;5053965;28;20021;-76
2023/06/21 10:55:25;;;;;;;;;;;;;;;;;;5019869;28;20287;-77
2023/06/21 10:57:51;;;;;;;10.15;8.63;;;;;;;;;;5035721;28;19912;-76
2023/06/21 11:00:19;;;;;;;10.68;9.18;;;;;;;;;;5035873;28;20048;-76
2023/06/21 11:02:44;;;;;;;9.52;8.15;;;;;;;;;;5054004;28;20099;-76
2023/06/21 11:05:14;;;;;;;9.20;8.30;;;;;;;;;;5054054;28;20498;-76
2023/06/21 11:07:59;;;;;;;11.33;8.90;;;;;;;;;;5053885;28;20048;-75
2023/06/21 11:10:35;;;;;;;9.65;8.65;;;;;;;;;;5053431;28;20124;-75
2023/06/21 11:13:02;;;;;;;11.20;8.55;;;;;;;;;;5054145;28;20135;-76
2023/06/21 11:15:28;;;;;;;11.55;8.85;;;;;;;;;;5035916;28;20116;-76
2023/06/21 11:17:54;;;;;;;10.27;8.80;;;;;;;;;;5035931;28;20052;-76
2023/06/21 11:20:22;;;;;;;9.32;8.07;;;;;;;;;;5053730;28;20009;-75
2023/06/21 11:22:58;;;;;;;13.60;9.18;;;;;;;;;;5053680;28;20049;-74
2023/06/21 11:25:25;;;;;;;10.82;8.60;;;;;;;;;;5053418;28;20525;-75
2023/06/21 11:28:10;;;;;;;9.90;8.98;;;;;;;;;;5035903;28;20037;-75
2023/06/21 11:30:36;;;;;;;11.40;8.68;;;;;;;;;;5075007;28;20063;-75
2023/06/21 11:33:02;;;;;;;10.45;8.80;;;;;;;;;;5075929;28;20143;-75
2023/06/21 11:35:47;;;;;;;13.05;9.35;;;;;;;;;;5075042;28;20169;-75
2023/06/21 11:38:14;;;;;;;11.85;9.85;;;;;;;;;;5073767;28;20043;-77
2023/06/21 11:40:40;;;;;;;11.77;8.90;;;;;;;;;;5073455;28;20079;-77
2023/06/21 11:43:05;;;;;;;10.93;9.23;;;;;;;;;;5073211;28;20012;-76
2023/06/21 11:45:36;;;;;;;10.70;9.70;;;;;;;;;;5055096;28;20039;-76
2023/06/21 11:48:08;;;;;;;11.05;9.10;;;;;;;;;;5073021;28;20025;-76
2023/06/21 11:50:36;;;;;;;11.70;8.90;;;;;;;;;;5073451;28;20029;-76
2023/06/21 11:53:23;;;;;;;12.95;9.77;;;;;;;;;;5073410;28;20096;-75
2023/06/21 11:55:51;;;;;;;11.27;9.13;;;;;;;;;;5073127;28;20024;-76
2023/06/21 11:58:17;;;;;;;11.07;9.95;;;;;;;;;;5073320;28;20021;-75
2023/06/21 12:00:44;;;;;;;12.15;10.10;;;;;;;;;;5055085;28;20013;-75
2023/06/21 12:03:12;;;;;;;11.52;10.23;;;;;;;;;;5073174;28;20021;-76
2023/06/21 12:05:49;;;;;;;12.88;10.20;;;;;;;;;;5073148;28;20107;-77
2023/06/21 12:08:17;;;;;;;11.77;10.38;;;;;;;;;;5072840;28;20095;-78
2023/06/21 12:10:43;;;;;;;12.63;9.85;;;;;;;;;;5055540;28;20025;-77
2023/06/21 12:13:11;;;;;;;11.45;9.90;;;;;;;;;;5055123;28;20095;-76
2023/06/21 12:15:37;;;;;;;12.35;10.02;;;;;;;;;;5072926;28;20071;-77
2023/06/21 12:18:08;;;;;;;15.63;10.10;;;;;;;;;;5072955;28;20012;-78
2023/06/21 12:20:36;;;;;;;12.95;10.32;;;;;;;;;;5054958;28;20041;-78
2023/06/21 12:23:02;;;;;;;11.60;10.38;;;;;;;;;;5056073;28;20016;-77
2023/06/21 12:25:27;;;;;;;11.75;10.18;;;;;;;;;;5075235;28;20379;-77
2023/06/21 12:28:02;;;;;;;17.60;10.90;;;;;;;;;;5076615;28;20465;-76
2023/06/21 12:30:30;;;;;;;13.75;10.10;;;;;;;;;;5076250;28;20290;-76
2023/06/21 12:32:55;;;;;;;14.93;9.88;;;;;;;;;;5076333;28;20090;-76
2023/06/21 12:35:28;;;;;;;13.88;10.80;;;;;;;;;;5058170;28;20040;-77
2023/06/21 12:37:56;;;;;;;14.43;10.15;;;;;;;;;;5076270;28;20023;-76
2023/06/21 12:40:24;;;;;;;11.32;10.13;;;;;;;;;;5075844;28;20021;-77
2023/06/21 12:42:51;;;;;;;11.43;10.30;;;;;;;;;;5076858;28;20059;-77
2023/06/21 12:45:21;;;;;;;11.23;10.10;;;;;;;;;;5058587;28;20031;-77
2023/06/21 12:47:49;;;;;;;13.63;10.60;;;;;;;;;;5058337;28;20032;-77
2023/06/21 12:50:20;;;;;;;12.82;9.98;;;;;;;;;;5075643;28;20012;-77
2023/06/21 12:53:00;;;;;;;14.85;10.90;;;;;;;;;;5075303;28;20048;-78
2023/06/21 12:55:28;;;;;;;12.33;9.43;;;;;;;;;;5075130;28;20026;-77
2023/06/21 12:57:53;;;;;;;11.10;9.65;;;;;;;;;;5074848;28;20051;-77
2023/06/21 13:00:24;;;;;;;12.77;10.43;;;;;;;;;;5075059;28;20107;-78
2023/06/21 13:02:49;;;;;;;11.43;9.82;;;;;;;;;;5074941;28;20031;-77
2023/06/21 13:05:16;;;;;;;12.87;9.60;;;;;;;;;;5074941;28;20033;-77
2023/06/21 13:07:42;;;;;;;11.65;10.35;;;;;;;;;;5075926;28;20041;-77
2023/06/21 13:10:07;;;;;;;11.00;9.13;;;;;;;;;;5074481;28;20108;-77
2023/06/21 13:12:36;;;;;;;12.63;10.23;;;;;;;;;;5079562;28;20219;-76
2023/06/21 13:15:05;;;;;;;15.45;10.50;;;;;;;;;;5095311;28;20043;-77
2023/06/21 13:17:31;;;;;;;11.80;10.30;;;;;;;;;;5095646;28;20043;-77
2023/06/21 13:20:05;;;;;;;12.02;10.23;;;;;;;;;;5096240;28;20472;-75
2023/06/21 13:22:31;;;;;;;11.07;9.90;;;;;;;;;;5096336;28;20028;-78
2023/06/21 13:24:57;;;;;;;12.35;9.65;;;;;;;;;;5096179;28;20503;-77
2023/06/21 13:27:23;;;;;;;12.63;10.18;;;;;;;;;;5095335;28;20055;-78
2023/06/21 13:29:49;;;;;;;12.18;10.15;;;;;;;;;;5095514;28;20039;-77
2023/06/21 13:32:14;;;;;;;13.23;10.70;;;;;;;;;;5095830;28;20026;-76
2023/06/21 13:34:41;;;;;;;12.90;10.38;;;;;;;;;;5095569;28;20048;-78
2023/06/21 13:37:07;;;;;;;16.85;11.88;;;;;;;;;;5094909;28;20055;-77
2023/06/21 13:39:34;;;;;;;11.55;10.40;;;;;;;;;;5095645;28;20078;-77
2023/06/21 13:42:00;;;;;;;11.50;10.30;;;;;;;;;;5095352;28;20103;-75
2023/06/21 13:44:26;;;;;;;11.55;10.48;;;;;;;;;;5095535;28;20016;-79
2023/06/21 13:46:51;;;;;;;11.50;10.20;;;;;;;;;;5095651;28;20480;-77
2023/06/21 13:49:18;;;;;;;14.00;10.47;;;;;;;;;;5094523;28;20038;-77
2023/06/21 13:51:44;;;;;;;15.32;11.07;;;;;;;;;;5093893;28;20047;-77
2023/06/21 13:54:10;;;;;;;12.35;10.25;;;;;;;;;;5077366;28;20020;-78
2023/06/21 13:56:41;;;;;;;14.90;11.43;;;;;;;;;;5095201;28;20024;-76
2023/06/21 13:59:08;;;;;;;13.50;9.70;;;;;;;;;;5077285;28;20139;-76
2023/06/21 14:01:35;;;;;;;15.00;10.73;;;;;;;;;;5095302;28;20044;-78
2023/06/21 14:04:02;;;;;;;7.00;5.50;;;;;;;;;;5077263;28;20028;-76
2023/06/21 14:06:27;;;;;;;6.13;5.20;;;;;;;;;;5077162;28;20027;-77
2023/06/21 14:08:53;;;;;;;7.43;5.87;;;;;;;;;;5094598;28;20104;-77
2023/06/21 14:11:18;;;;;;;6.78;6.07;;;;;;;;;;5095038;28;20095;-77
2023/06/21 14:13:43;;;;;;;7.43;5.10;;;;;;;;;;5095145;28;20039;-76
2023/06/21 14:16:08;;;;;;;7.17;4.73;;;;;;;;;;5095011;28;20020;-76
2023/06/21 14:18:34;;;;;;;13.13;6.83;;;;;;;;;;5094789;28;20281;-76
2023/06/21 14:21:01;;;;;;;9.27;4.40;;;;;;;;;;5094791;28;20261;-76
2023/06/21 14:23:27;;;;;;;6.95;3.70;;;;;;;;;;5094793;28;20465;-76
2023/06/21 14:25:52;;;;;;;8.60;4.22;;;;;;;;;;5094870;28;20070;-75
2023/06/21 14:28:19;;;;;;;7.68;5.78;;;;;;;;;;5094453;28;20036;-76